Local Weather Ingen bokad jour idag Saturday 20th of July
Flygplats METAR TAF
Airport METAR TAF
ESSL - Linköping200350Z 26005KT CAVOK 16/13 Q1015=200230Z 2003/2005 30008KT CAVOK=
ESCF - Malmen200350Z AUTO 23005KT 9999 NCD 14/13 Q1016=NO VALID TAF PUBLISHED
ESSP - Norrköping200350Z AUTO 26005KT 9999 NCD 16/15 Q1015=NO VALID TAF PUBLISHED
ESGJ - Jönköping200350Z AUTO 26002KT 9999 NCD 11/11 Q1017=NO VALID TAF PUBLISHED
ESKN - Skavsta200350Z 26005KT CAVOK 14/14 Q1014=200230Z 2003/2103 28004KT CAVOK=
ESSV - Visby200350Z AUTO 29004KT 9999 NCD 17/15 Q1015=NO VALID TAF PUBLISHED
ESGG - Göteborg200350Z 20003KT CAVOK 13/11 Q1017=200230Z 2003/2103 23003KT CAVOK=
FLEET STATUS
Flygplan Tid till service Tid till flygstopp Flygtid Landningar
Aircraft To service To stop Total time Landings
SE-IUD34.2 h44.2 h13 065.8 h26 838 st.
SE-KIT-0.8 h4.2 h13 450.8 h26 920 st.
(1) 4.2 timmar till flygstopp
SE-KMH26.2 h31.2 h17 423.8 h64 381 st.
SE-LRL9.3 h14.3 h2 190.7 h4 345 st.
SE-MEKN/AN/A4 131.2 h4 673 st.
SE-MMZ-6.0 h4.0 h1 506.0 h2 751 st.
(1) 4.0 timmar till flygstopp
PPR
Ankomst Avgång Flygplan Namn Bränsle
Arrival Departure Aircraft Name Fuel
7/7 18:007/8 21:30SE-JUGTommy RosellInget
NOTAM
>>> ESSL/LINKOPING/SAAB <<<
+ AERODROME CONTROL TOWER (TWR) HOURS OF SERVICE ARE NOW MON 0340-0430 1505-1635 2025-2135, TUE 0340-0430 1505-1635 2025-2135, WED 0340-0430 1505-1635, THU 1450-1625 2025-2135, FRI 0340-0435 1505-1635 2025-2135, SAT 0340-0430 1500-1635 2025-2135, SUN 0340-0430 1315-1445 2025-2135. FROM: 15 JUL 2024 00:00 TO: 21 JUL 2024 23:59
+ OBST ERECTED BRIGADGATAN 17 PSN 582344N 0153735E HGT 104FT AGL ELEV 371FT AMSL. LGTD F R FROM: 27 JUN 2024 00:00 TO: 30 AUG 2024 23:59
+ RWY 29 LIMITED. MAKE WIDE TURNS FIRST 600 METERS FROM THR RWY 29 DUE SOFT RWY SURFACE CONDITIONS. FROM: 20 MAY 2024 10:48 TO: 20 AUG 2024 08:00
>>> ESSP/NORRKOPING/KUNGSANGEN <<<
+ TEMPORARY SCAFFOLDING ON BUILDING IN APCH RWY 09 PSN 583532N 0161113E HGT 228FT AGL ELEV 243FT AMSL. FROM: 08 JUL 2024 09:02 TO: 30 SEP 2024 14:00 EST
+ AERODROME CONTROL TOWER (TWR) HOURS OF SERVICE ARE NOW MON 0500-1700 TUE 0500-1400, WED 0500-1800, THU 0500-1400 2300-2359, FRI 0000-0030 0400-1600, SAT CLOSED, SUN 1100-1400 FROM: 15 JUL 2024 00:00 TO: 21 JUL 2024 23:59
+ OCA/OCH CHANGED FOR NDB APCH RWY 27: 650 FT(620FT). FROM: 04 JUL 2024 00:00 TO: 31 JUL 2024 22:00
+ CRANE ERECTED NORTH OF AIRPORT PSN 583750N 0161418E HGT 361FT AGL ELEV 401FT AMSL. LGTD F R. FROM: 04 JUL 2024 00:00 TO: 31 JUL 2024 22:00
>>> ESCF/LINKOPING/MALMEN <<<
+ AERODROME CLSD FROM: 01 JUL 2024 00:00 TO: 04 AUG 2024 23:59
+ AERODROME CONTROL TOWER (TWR) CLSD FROM: 01 JUL 2024 00:00 TO: 04 AUG 2024 23:59
+ RWY 08/26 CLSD FROM: 24 JUN 2024 08:37 TO: 09 AUG 2024 13:00 EST
+ ILS RWY 01 U/S FROM: 20 JUN 2024 05:52 TO: 15 SEP 2024 14:00 EST